createdAt,value
2022-12-28T00:01:15.621Z,3.47
2022-12-28T00:03:42.451Z,0.35
2022-12-28T00:06:10.062Z,1.23
2022-12-28T00:08:37.048Z,1.85
2022-12-28T00:11:12.169Z,1.98
2022-12-28T00:13:45.700Z,1.02
2022-12-28T00:16:33.583Z,2.05
2022-12-28T00:19:01.635Z,0.80
2022-12-28T00:21:28.641Z,1.10
2022-12-28T00:23:57.117Z,1.02
2022-12-28T00:26:24.414Z,2.60
2022-12-28T00:28:51.240Z,1.00
2022-12-28T00:31:18.029Z,2.08
2022-12-28T00:33:44.773Z,3.60
2022-12-28T00:36:12.874Z,0.85
2022-12-28T00:38:39.818Z,0.90
2022-12-28T00:41:06.908Z,0.45
2022-12-28T00:43:33.779Z,1.40
2022-12-28T00:46:00.550Z,1.63
2022-12-28T00:48:27.499Z,0.52
2022-12-28T00:51:04.563Z,0.52
2022-12-28T00:53:31.355Z,0.50
2022-12-28T00:56:06.326Z,1.02
2022-12-28T00:58:33.403Z,0.30
2022-12-28T01:01:00.483Z,0.35
2022-12-28T01:03:27.298Z,0.45
2022-12-28T01:05:53.993Z,1.50
2022-12-28T01:08:21.014Z,0.30
2022-12-28T01:10:47.768Z,0.30
2022-12-28T01:13:14.510Z,1.27
2022-12-28T01:15:41.204Z,0.35
2022-12-28T01:18:07.887Z,0.28
2022-12-28T01:20:35.071Z,0.20
2022-12-28T01:23:01.960Z,0.73
2022-12-28T01:25:28.690Z,0.30
2022-12-28T01:27:55.383Z,2.05
2022-12-28T01:30:23.492Z,0.38
2022-12-28T01:32:50.154Z,0.45
2022-12-28T01:35:16.938Z,0.68
2022-12-28T01:37:43.602Z,0.25
2022-12-28T01:40:13.319Z,0.50
2022-12-28T01:42:40.957Z,0.32
2022-12-28T01:45:18.365Z,0.70
2022-12-28T01:47:45.058Z,0.52
2022-12-28T01:50:14.285Z,0.15
2022-12-28T01:53:10.520Z,0.65
2022-12-28T01:55:39.222Z,0.75
2022-12-28T01:58:13.102Z,1.20
2022-12-28T02:00:40.029Z,1.70
2022-12-28T02:03:15.187Z,0.20
2022-12-28T02:05:48.596Z,0.98
2022-12-28T02:08:28.695Z,0.60
2022-12-28T02:10:55.413Z,0.30
2022-12-28T02:13:22.922Z,0.93
2022-12-28T02:15:49.660Z,0.65
2022-12-28T02:18:16.783Z,0.32
2022-12-28T02:20:52.580Z,0.43
2022-12-28T02:23:52.730Z,2.17
2022-12-28T02:26:52.314Z,0.45
2022-12-28T02:29:44.352Z,0.38
2022-12-28T02:32:23.708Z,0.40
2022-12-28T02:34:57.468Z,0.47
2022-12-28T02:37:32.008Z,0.20
2022-12-28T02:40:21.032Z,0.30
2022-12-28T02:42:47.783Z,0.30
2022-12-28T02:45:55.694Z,0.22
2022-12-28T02:48:41.379Z,0.32
2022-12-28T02:51:14.096Z,1.20
2022-12-28T02:54:01.396Z,1.35
2022-12-28T02:56:28.095Z,0.47
2022-12-28T02:59:22.880Z,1.08
2022-12-28T03:02:18.905Z,0.55
2022-12-28T03:05:19.194Z,0.28
2022-12-28T03:08:12.002Z,1.08
2022-12-28T03:10:44.955Z,0.50
2022-12-28T03:13:48.415Z,0.37
2022-12-28T03:16:54.413Z,0.30
2022-12-28T03:19:40.099Z,0.20
2022-12-28T03:22:28.083Z,0.30
2022-12-28T03:25:13.473Z,2.83
2022-12-28T03:27:58.553Z,0.38
2022-12-28T03:30:43.978Z,0.40
2022-12-28T03:33:10.880Z,0.20
2022-12-28T03:35:55.978Z,0.30
2022-12-28T03:38:50.243Z,0.25
2022-12-28T03:41:21.804Z,1.17
2022-12-28T03:43:52.335Z,0.38
2022-12-28T03:46:33.892Z,0.30
2022-12-28T03:49:00.909Z,0.32
2022-12-28T03:51:28.238Z,0.43
2022-12-28T03:53:55.019Z,0.88
2022-12-28T03:56:26.379Z,1.30
2022-12-28T03:58:53.216Z,0.32
2022-12-28T04:01:20.159Z,1.08
2022-12-28T04:03:47.120Z,1.05
2022-12-28T04:06:16.486Z,1.00
2022-12-28T04:08:44.100Z,0.95
2022-12-28T04:11:11.202Z,0.43
2022-12-28T04:13:38.137Z,1.10
2022-12-28T04:16:07.331Z,0.90
2022-12-28T04:18:34.245Z,0.25
2022-12-28T04:21:01.129Z,0.25
2022-12-28T04:23:27.977Z,0.28
2022-12-28T04:26:01.664Z,0.75
2022-12-28T04:28:28.875Z,0.10
2022-12-28T04:30:56.520Z,1.65
2022-12-28T04:33:23.435Z,0.32
2022-12-28T04:35:50.249Z,1.67
2022-12-28T04:38:16.955Z,0.10
2022-12-28T04:40:43.862Z,0.15
2022-12-28T04:43:10.690Z,1.02
2022-12-28T04:45:37.394Z,0.10
2022-12-28T04:48:04.338Z,0.52
2022-12-28T04:50:31.054Z,0.22
2022-12-28T04:52:58.482Z,0.15
2022-12-28T04:55:32.036Z,0.10
2022-12-28T04:58:00.338Z,3.00
2022-12-28T05:00:27.064Z,0.10
2022-12-28T05:02:53.879Z,0.40
2022-12-28T05:05:20.658Z,0.10
2022-12-28T05:07:47.342Z,0.10
2022-12-28T05:10:14.043Z,3.50
2022-12-28T05:12:41.801Z,0.20
2022-12-28T05:15:08.822Z,0.10
2022-12-28T05:17:35.671Z,2.30
2022-12-28T05:20:02.973Z,0.08
2022-12-28T05:22:29.711Z,0.88
2022-12-28T05:24:56.627Z,0.10
2022-12-28T05:27:23.326Z,0.10
2022-12-28T05:29:50.030Z,0.20
2022-12-28T05:32:16.774Z,2.85
2022-12-28T05:34:43.516Z,0.20
2022-12-28T05:37:11.423Z,0.35
2022-12-28T05:39:40.102Z,0.15
2022-12-28T05:42:06.856Z,0.30
2022-12-28T05:44:33.556Z,0.10
2022-12-28T05:47:00.380Z,0.43
2022-12-28T05:49:27.148Z,0.28
2022-12-28T05:51:53.874Z,0.20
2022-12-28T05:54:20.797Z,2.30
2022-12-28T05:56:50.597Z,2.17
2022-12-28T05:59:17.334Z,3.40
2022-12-28T06:01:44.241Z,0.35
2022-12-28T06:04:16.567Z,0.45
2022-12-28T06:06:43.628Z,0.35
2022-12-28T06:09:10.386Z,0.20
2022-12-28T06:11:37.112Z,0.20
2022-12-28T06:14:05.845Z,1.40
2022-12-28T06:16:34.682Z,1.75
2022-12-28T06:19:05.461Z,1.13
2022-12-28T06:21:33.000Z,0.25
2022-12-28T06:24:00.087Z,0.30
2022-12-28T06:26:28.062Z,1.30
2022-12-28T06:28:54.917Z,0.45
2022-12-28T06:31:23.228Z,1.17
2022-12-28T06:33:54.060Z,0.22
2022-12-28T06:36:22.588Z,0.95
2022-12-28T06:38:49.881Z,0.43
2022-12-28T06:41:17.483Z,1.25
2022-12-28T06:43:44.346Z,0.50
2022-12-28T06:46:12.037Z,1.13
2022-12-28T06:48:38.873Z,0.38
2022-12-28T06:51:12.603Z,1.50
2022-12-28T06:53:39.490Z,0.98
2022-12-28T06:56:13.702Z,4.78
2022-12-28T06:58:40.574Z,2.22
2022-12-28T07:01:13.198Z,0.70
2022-12-28T07:03:40.039Z,1.73
2022-12-28T07:06:06.849Z,4.10
2022-12-28T07:08:33.721Z,0.50
2022-12-28T07:11:04.922Z,3.30
2022-12-28T07:13:31.695Z,2.70
2022-12-28T07:16:04.638Z,2.63
2022-12-28T07:18:32.528Z,3.85
2022-12-28T07:21:07.146Z,3.30
2022-12-28T07:23:34.376Z,0.38
2022-12-28T07:26:09.816Z,1.92
2022-12-28T07:28:38.393Z,3.38
2022-12-28T07:31:06.891Z,4.25
2022-12-28T07:33:34.894Z,6.65
2022-12-28T07:36:02.169Z,6.25
2022-12-28T07:38:28.856Z,8.05
2022-12-28T07:41:14.323Z,4.72
2022-12-28T07:43:41.545Z,8.20
2022-12-28T07:46:11.249Z,4.43
2022-12-28T07:48:38.230Z,4.60
2022-12-28T07:51:18.009Z,3.70
2022-12-28T07:53:49.126Z,5.97
2022-12-28T07:56:16.028Z,9.10
2022-12-28T08:01:13.064Z,4.93
2022-12-28T08:03:40.828Z,8.55
2022-12-28T08:06:12.132Z,7.65
2022-12-28T08:08:42.940Z,6.40
2022-12-28T08:11:11.499Z,12.38
2022-12-28T08:13:39.431Z,6.70
2022-12-28T08:16:06.819Z,12.30
2022-12-28T08:18:33.699Z,9.00
2022-12-28T08:21:08.422Z,5.15
2022-12-28T08:23:35.199Z,13.73
2022-12-28T08:26:09.513Z,7.18
2022-12-28T08:28:36.328Z,10.63
2022-12-28T08:31:12.582Z,10.98
2022-12-28T08:33:39.379Z,9.80
2022-12-28T08:36:06.739Z,8.18
2022-12-28T08:38:33.744Z,12.00
2022-12-28T08:41:01.714Z,10.45
2022-12-28T08:43:29.184Z,8.13
2022-12-28T08:46:07.259Z,8.15
2022-12-28T08:48:34.366Z,10.60
2022-12-28T08:51:08.576Z,8.07
2022-12-28T08:53:35.825Z,10.57
2022-12-28T08:56:16.927Z,9.98
2022-12-28T08:58:43.967Z,7.65
2022-12-28T09:01:30.303Z,15.23
2022-12-28T09:03:58.117Z,12.32
2022-12-28T09:06:36.031Z,6.65
2022-12-28T09:09:05.951Z,4.70
2022-12-28T09:11:36.943Z,8.10
2022-12-28T09:14:04.457Z,3.50
2022-12-28T09:16:31.369Z,6.40
2022-12-28T09:18:59.371Z,4.68
2022-12-28T09:21:28.262Z,9.50
2022-12-28T09:23:55.609Z,9.63
2022-12-28T09:26:24.014Z,6.97
2022-12-28T09:28:53.737Z,7.35
2022-12-28T09:31:21.413Z,6.43
2022-12-28T09:36:50.038Z,8.18
2022-12-28T09:39:19.243Z,11.15
2022-12-28T09:41:51.378Z,14.13
2022-12-28T09:44:49.555Z,8.68
2022-12-28T09:47:27.182Z,7.47
2022-12-28T09:50:06.209Z,12.82
2022-12-28T09:52:39.451Z,9.35
2022-12-28T09:55:15.354Z,10.70
2022-12-28T10:00:16.904Z,10.63
2022-12-28T10:02:43.852Z,9.25
2022-12-28T10:05:12.586Z,10.57
2022-12-28T10:07:39.388Z,12.85
2022-12-28T10:10:06.481Z,8.70
2022-12-28T10:12:33.396Z,7.15
2022-12-28T10:15:00.140Z,21.33
2022-12-28T10:17:28.773Z,12.02
2022-12-28T10:19:57.334Z,11.55
2022-12-28T10:22:24.182Z,7.60
2022-12-28T10:24:50.920Z,10.48
2022-12-28T10:27:30.783Z,8.15
2022-12-28T10:29:59.271Z,9.55
2022-12-28T10:32:25.980Z,10.02
2022-12-28T10:34:56.809Z,10.15
2022-12-28T10:37:24.028Z,11.98
2022-12-28T10:39:54.011Z,5.05
2022-12-28T10:42:34.955Z,15.88
2022-12-28T10:45:16.763Z,12.57
2022-12-28T10:47:54.483Z,6.63
2022-12-28T10:50:43.303Z,11.13
2022-12-28T10:53:39.234Z,10.13
2022-12-28T10:56:19.719Z,8.63
2022-12-28T10:58:47.725Z,6.65
2022-12-28T11:01:14.581Z,8.98
2022-12-28T11:03:43.451Z,10.68
2022-12-28T11:06:26.652Z,22.83
2022-12-28T11:09:03.056Z,15.60
2022-12-28T11:11:29.946Z,16.25
2022-12-28T11:14:21.013Z,15.80
2022-12-28T11:16:47.793Z,10.40
2022-12-28T11:19:14.615Z,5.95
2022-12-28T11:21:41.952Z,6.80
2022-12-28T11:24:12.971Z,10.00
2022-12-28T11:26:41.510Z,9.93
2022-12-28T11:29:09.313Z,12.38
2022-12-28T11:31:38.697Z,9.00
2022-12-28T11:34:06.513Z,8.45
2022-12-28T11:36:37.617Z,12.77
2022-12-28T11:39:27.126Z,11.18
2022-12-28T11:42:36.991Z,14.40
2022-12-28T11:44:49.027Z,5.05
2022-12-28T11:47:15.802Z,7.60
2022-12-28T11:49:43.187Z,11.43
2022-12-28T11:52:34.203Z,10.43
2022-12-28T11:55:23.000Z,11.02
2022-12-28T11:57:49.924Z,8.75
2022-12-28T12:00:39.921Z,6.78
2022-12-28T12:03:06.719Z,8.55
2022-12-28T12:05:36.642Z,4.82
2022-12-28T12:08:14.096Z,6.90
2022-12-28T12:10:44.898Z,8.95
2022-12-28T12:13:27.050Z,6.93
2022-12-28T12:16:05.327Z,4.68
2022-12-28T12:18:46.505Z,4.55
2022-12-28T12:21:29.123Z,4.95
2022-12-28T12:23:58.036Z,5.20
2022-12-28T12:26:39.263Z,7.28
2022-12-28T12:29:19.869Z,9.27
2022-12-28T12:31:57.896Z,9.32
2022-12-28T12:34:29.974Z,4.97
2022-12-28T12:37:34.432Z,5.55
2022-12-28T12:40:10.353Z,10.82
2022-12-28T12:42:51.887Z,10.55
2022-12-28T12:45:32.940Z,6.85
2022-12-28T12:48:39.014Z,10.63
2022-12-28T12:51:27.001Z,10.70
2022-12-28T12:54:12.449Z,11.32
2022-12-28T12:56:49.861Z,8.05
2022-12-28T12:59:31.927Z,9.05
2022-12-28T13:02:30.053Z,8.80
2022-12-28T13:04:56.956Z,5.78
2022-12-28T13:07:25.321Z,6.78
2022-12-28T13:09:53.190Z,8.93
2022-12-28T13:12:19.959Z,6.25
2022-12-28T13:14:47.880Z,5.85
2022-12-28T13:17:19.410Z,5.50
2022-12-28T13:19:46.338Z,11.10
2022-12-28T13:22:32.813Z,11.40
2022-12-28T13:24:59.620Z,11.43
2022-12-28T13:27:33.657Z,6.32
2022-12-28T13:32:38.414Z,8.27
2022-12-28T13:35:26.815Z,7.00
2022-12-28T13:38:08.608Z,4.65
2022-12-28T13:40:35.492Z,7.72
2022-12-28T13:43:37.273Z,4.63
2022-12-28T13:46:08.140Z,12.07
2022-12-28T13:48:40.238Z,3.13
2022-12-28T13:51:10.693Z,2.17
2022-12-28T13:53:37.512Z,8.05
2022-12-28T13:56:04.859Z,4.32
2022-12-28T13:58:35.841Z,4.10
2022-12-28T14:01:07.394Z,3.85
2022-12-28T14:03:40.605Z,13.25
2022-12-28T14:06:09.283Z,3.17
2022-12-28T14:08:37.336Z,4.05
2022-12-28T14:11:04.663Z,4.55
2022-12-28T14:13:32.256Z,0.98
2022-12-28T14:15:59.288Z,4.72
2022-12-28T14:18:26.030Z,7.72
2022-12-28T14:21:00.520Z,2.13
2022-12-28T14:23:31.813Z,2.22
2022-12-28T14:26:00.466Z,6.65
2022-12-28T14:28:39.439Z,2.30
2022-12-28T14:31:07.318Z,6.43
2022-12-28T14:33:49.902Z,3.08
2022-12-28T14:36:19.135Z,6.05
2022-12-28T14:38:47.289Z,2.20
2022-12-28T14:41:35.569Z,4.13
2022-12-28T14:44:03.461Z,3.05
2022-12-28T14:46:35.429Z,2.10
2022-12-28T14:49:30.346Z,6.28
2022-12-28T14:52:17.916Z,3.60
2022-12-28T14:54:44.891Z,4.75
2022-12-28T14:57:42.928Z,4.20
2022-12-28T15:00:30.305Z,2.45
2022-12-28T15:02:57.747Z,0.82
2022-12-28T15:05:38.120Z,4.45
2022-12-28T15:08:05.186Z,8.23
2022-12-28T15:10:34.074Z,3.47
2022-12-28T15:13:04.408Z,2.72
2022-12-28T15:15:31.418Z,4.68
2022-12-28T15:17:58.305Z,3.20
2022-12-28T15:20:25.110Z,4.32
2022-12-28T15:22:52.921Z,3.97
2022-12-28T15:25:19.675Z,4.18
2022-12-28T15:27:51.048Z,2.10
2022-12-28T15:30:20.604Z,2.83
2022-12-28T15:32:49.877Z,3.63
2022-12-28T15:35:16.737Z,7.38
2022-12-28T15:37:45.676Z,4.07
2022-12-28T15:40:12.455Z,10.57
2022-12-28T15:42:40.794Z,4.80
2022-12-28T15:45:09.149Z,3.28
2022-12-28T15:47:36.027Z,2.45
2022-12-28T15:50:04.023Z,4.82
2022-12-28T15:52:31.592Z,5.65
2022-12-28T15:54:58.595Z,4.97
2022-12-28T15:57:26.114Z,3.13
2022-12-28T15:59:54.598Z,11.85
2022-12-28T16:02:22.071Z,11.00
2022-12-28T16:04:48.984Z,7.38
2022-12-28T16:07:16.019Z,12.77
2022-12-28T16:09:42.791Z,10.52
2022-12-28T16:12:09.635Z,16.00
2022-12-28T16:14:36.432Z,24.05
2022-12-28T16:17:03.246Z,17.08
2022-12-28T16:19:30.035Z,15.65
2022-12-28T16:21:57.119Z,22.60
2022-12-28T16:24:24.358Z,13.10
2022-12-28T16:26:51.142Z,9.23
2022-12-28T16:29:18.145Z,18.48
2022-12-28T16:31:45.273Z,20.88
2022-12-28T16:34:16.799Z,14.55
2022-12-28T16:36:45.813Z,13.82
2022-12-28T16:39:14.333Z,11.55
2022-12-28T16:41:41.138Z,14.07
2022-12-28T16:44:18.838Z,19.42
2022-12-28T16:46:45.744Z,21.17
2022-12-28T16:49:12.627Z,26.15
2022-12-28T16:51:40.341Z,16.73
2022-12-28T16:54:07.337Z,20.98
2022-12-28T16:56:34.267Z,17.45
2022-12-28T16:59:01.144Z,16.98
2022-12-28T17:01:28.226Z,18.58
2022-12-28T17:04:01.685Z,19.95
2022-12-28T17:06:28.838Z,18.77
2022-12-28T17:08:55.923Z,19.05
2022-12-28T17:11:22.651Z,18.05
2022-12-28T17:13:49.451Z,29.27
2022-12-28T17:16:16.260Z,29.50
2022-12-28T17:18:43.939Z,30.02
2022-12-28T17:21:10.733Z,32.35
2022-12-28T17:23:39.261Z,31.92
2022-12-28T17:26:06.558Z,26.15
2022-12-28T17:28:33.499Z,25.95
2022-12-28T17:31:11.948Z,25.05
2022-12-28T17:33:40.174Z,31.00
2022-12-28T17:36:07.958Z,19.08
2022-12-28T17:38:34.712Z,23.35
2022-12-28T17:41:07.687Z,25.95
2022-12-28T17:43:34.445Z,21.33
2022-12-28T17:46:02.018Z,23.13
2022-12-28T17:48:30.793Z,15.48
2022-12-28T17:50:59.052Z,12.52
2022-12-28T17:53:26.118Z,9.70
2022-12-28T17:55:52.852Z,10.80
2022-12-28T17:58:19.637Z,9.93
2022-12-28T18:00:46.531Z,10.02
2022-12-28T18:03:13.745Z,19.42
2022-12-28T18:05:40.515Z,19.00
2022-12-28T18:08:07.288Z,12.13
2022-12-28T18:10:34.358Z,10.18
2022-12-28T18:13:01.103Z,14.45
2022-12-28T18:15:32.937Z,12.20
2022-12-28T18:18:00.932Z,15.20
2022-12-28T18:20:28.030Z,14.68
2022-12-28T18:22:55.447Z,12.32
2022-12-28T18:25:22.460Z,9.48
2022-12-28T18:27:49.184Z,14.45
2022-12-28T18:30:16.311Z,9.32
2022-12-28T18:32:43.138Z,8.45
2022-12-28T18:35:10.004Z,8.95
2022-12-28T18:37:36.754Z,8.15
2022-12-28T18:40:03.929Z,12.40
2022-12-28T18:42:30.640Z,12.40
2022-12-28T18:44:58.286Z,8.55
2022-12-28T18:47:25.099Z,14.15
2022-12-28T18:49:51.850Z,9.00
2022-12-28T18:52:18.691Z,12.70
2022-12-28T18:54:45.542Z,13.68
2022-12-28T18:57:12.392Z,6.47
2022-12-28T18:59:39.245Z,4.22
2022-12-28T19:02:15.817Z,15.75
2022-12-28T19:04:44.643Z,7.18
2022-12-28T19:07:11.460Z,10.00
2022-12-28T19:09:38.367Z,5.55
2022-12-28T19:12:05.228Z,8.52
2022-12-28T19:14:31.953Z,11.10
2022-12-28T19:16:58.671Z,14.07
2022-12-28T19:19:25.582Z,16.10
2022-12-28T19:21:58.482Z,11.00
2022-12-28T19:24:25.720Z,13.88
2022-12-28T19:26:53.770Z,12.13
2022-12-28T19:29:20.608Z,23.25
2022-12-28T19:31:47.396Z,13.57
2022-12-28T19:34:14.298Z,12.18
2022-12-28T19:36:41.130Z,10.20
2022-12-28T19:39:07.921Z,13.10
2022-12-28T19:41:35.674Z,17.83
2022-12-28T19:44:02.483Z,13.32
2022-12-28T19:46:32.631Z,17.23
2022-12-28T19:49:00.408Z,22.17
2022-12-28T19:51:31.405Z,14.68
2022-12-28T19:53:59.228Z,16.95
2022-12-28T19:56:25.958Z,16.15
2022-12-28T19:58:55.271Z,16.92
2022-12-28T20:01:26.017Z,29.05
2022-12-28T20:03:54.263Z,23.98
2022-12-28T20:06:22.918Z,19.70
2022-12-28T20:08:54.441Z,25.52
2022-12-28T20:11:21.991Z,28.35
2022-12-28T20:13:57.036Z,22.48
2022-12-28T20:16:24.264Z,29.60
2022-12-28T20:18:52.532Z,28.85
2022-12-28T20:21:22.171Z,27.65
2022-12-28T20:23:49.827Z,28.65
2022-12-28T20:26:17.288Z,30.20
2022-12-28T20:28:44.403Z,38.83
2022-12-28T20:31:13.153Z,21.27
2022-12-28T20:33:40.070Z,20.55
2022-12-28T20:36:08.868Z,26.30
2022-12-28T20:38:35.620Z,22.80
2022-12-28T20:41:38.340Z,27.15
2022-12-28T20:44:07.096Z,32.80
2022-12-28T20:46:34.040Z,25.58
2022-12-28T20:49:00.830Z,23.52
2022-12-28T20:51:27.760Z,27.70
2022-12-28T20:53:54.555Z,29.77
2022-12-28T20:56:23.194Z,35.50
2022-12-28T20:58:50.037Z,27.67
2022-12-28T21:01:16.987Z,32.83
2022-12-28T21:03:44.356Z,33.90
2022-12-28T21:06:11.403Z,23.77
2022-12-28T21:08:38.192Z,24.10
2022-12-28T21:11:05.117Z,33.75
2022-12-28T21:13:31.997Z,28.10
2022-12-28T21:15:59.034Z,22.02
2022-12-28T21:18:25.799Z,31.98
2022-12-28T21:20:58.764Z,23.33
2022-12-28T21:23:25.942Z,18.48
2022-12-28T21:25:52.770Z,28.83
2022-12-28T21:28:19.600Z,28.13
2022-12-28T21:30:53.467Z,26.00
2022-12-28T21:33:20.213Z,15.30
2022-12-28T21:36:03.379Z,13.63
2022-12-28T21:38:30.601Z,14.18
2022-12-28T21:41:07.682Z,17.80
2022-12-28T21:43:34.439Z,17.77
2022-12-28T21:46:08.932Z,14.55
2022-12-28T21:48:36.403Z,21.55
2022-12-28T21:51:32.253Z,12.07
2022-12-28T21:54:01.333Z,9.30
2022-12-28T21:56:28.725Z,25.70
2022-12-28T21:58:56.152Z,21.08
2022-12-28T22:01:42.044Z,12.88
2022-12-28T22:04:32.516Z,19.35
2022-12-28T22:06:59.272Z,16.92
2022-12-28T22:09:44.861Z,14.43
2022-12-28T22:12:30.225Z,16.65
2022-12-28T22:15:19.979Z,14.77
2022-12-28T22:17:46.734Z,15.20
2022-12-28T22:20:14.599Z,14.25
2022-12-28T22:22:41.933Z,14.18
2022-12-28T22:25:09.581Z,11.32
2022-12-28T22:27:36.394Z,17.52
2022-12-28T22:30:03.533Z,11.82
2022-12-28T22:32:30.265Z,14.63
2022-12-28T22:34:57.081Z,16.27
2022-12-28T22:37:23.918Z,11.27
2022-12-28T22:39:50.701Z,18.05
2022-12-28T22:42:17.638Z,11.90
2022-12-28T22:44:44.501Z,18.65
2022-12-28T22:47:11.204Z,20.48
2022-12-28T22:49:38.074Z,21.90
2022-12-28T22:52:05.029Z,16.83
2022-12-28T22:54:31.776Z,24.08
2022-12-28T22:56:58.512Z,12.25
2022-12-28T22:59:25.331Z,15.48
2022-12-28T23:01:53.450Z,20.08
2022-12-28T23:04:20.464Z,19.25
2022-12-28T23:06:47.260Z,14.70
2022-12-28T23:09:16.585Z,25.60
2022-12-28T23:11:43.620Z,21.98
2022-12-28T23:14:36.304Z,23.77
2022-12-28T23:17:09.971Z,19.02
2022-12-28T23:19:55.180Z,22.23
2022-12-28T23:22:44.923Z,14.63
2022-12-28T23:25:31.820Z,13.55
2022-12-28T23:27:59.892Z,22.77
2022-12-28T23:30:27.000Z,16.63
2022-12-28T23:32:53.893Z,16.20
2022-12-28T23:35:20.905Z,17.10
2022-12-28T23:37:47.727Z,24.40
2022-12-28T23:40:16.779Z,18.88
2022-12-28T23:42:43.958Z,26.67
2022-12-28T23:45:12.810Z,22.38
2022-12-28T23:47:39.622Z,22.80
2022-12-28T23:50:06.708Z,23.13
2022-12-28T23:52:33.487Z,16.50
2022-12-28T23:55:01.639Z,21.20
2022-12-28T23:57:28.427Z,27.85
2022-12-28T23:59:55.131Z,23.05
